sensor_id;sensor_type;location;lat;lon;timestamp;pressure;altitude;pressure_sealevel;temperature;humidity
69784;BME280;57054;51.978;4.498;2023-04-03T00:02:03;103081.78;;;5.47;85.22
69784;BME280;57054;51.978;4.498;2023-04-03T00:04:28;103085.25;;;5.46;85.28
69784;BME280;57054;51.978;4.498;2023-04-03T00:06:54;103081.78;;;5.46;85.21
69784;BME280;57054;51.978;4.498;2023-04-03T00:09:19;103078.28;;;5.45;85.48
69784;BME280;57054;51.978;4.498;2023-04-03T00:11:45;103080.00;;;5.43;85.15
69784;BME280;57054;51.978;4.498;2023-04-03T00:14:11;103081.69;;;5.41;85.26
69784;BME280;57054;51.978;4.498;2023-04-03T00:16:36;103086.91;;;5.43;85.45
69784;BME280;57054;51.978;4.498;2023-04-03T00:19:02;103082.56;;;5.42;85.59
69784;BME280;57054;51.978;4.498;2023-04-03T00:21:27;103083.44;;;5.41;85.75
69784;BME280;57054;51.978;4.498;2023-04-03T00:23:53;103087.72;;;5.40;85.80
69784;BME280;57054;51.978;4.498;2023-04-03T00:26:18;103081.66;;;5.39;85.97
69784;BME280;57054;51.978;4.498;2023-04-03T00:28:43;103088.56;;;5.37;85.97
69784;BME280;57054;51.978;4.498;2023-04-03T00:31:09;103085.09;;;5.37;85.96
69784;BME280;57054;51.978;4.498;2023-04-03T00:33:35;103087.69;;;5.37;86.26
69784;BME280;57054;51.978;4.498;2023-04-03T00:36:05;103085.03;;;5.34;86.14
69784;BME280;57054;51.978;4.498;2023-04-03T00:38:31;103089.38;;;5.33;85.99
69784;BME280;57054;51.978;4.498;2023-04-03T00:40:57;103094.53;;;5.32;86.11
69784;BME280;57054;51.978;4.498;2023-04-03T00:43:24;103085.88;;;5.31;86.24
69784;BME280;57054;51.978;4.498;2023-04-03T00:45:55;103088.44;;;5.30;86.22
69784;BME280;57054;51.978;4.498;2023-04-03T00:50:48;103085.78;;;5.27;86.13
69784;BME280;57054;51.978;4.498;2023-04-03T00:53:18;103093.50;;;5.24;86.27
69784;BME280;57054;51.978;4.498;2023-04-03T00:55:47;103088.31;;;5.24;86.37
69784;BME280;57054;51.978;4.498;2023-04-03T00:58:15;103090.91;;;5.24;86.59
69784;BME280;57054;51.978;4.498;2023-04-03T01:00:43;103088.31;;;5.24;86.71
69784;BME280;57054;51.978;4.498;2023-04-03T01:03:11;103085.72;;;5.22;86.77
69784;BME280;57054;51.978;4.498;2023-04-03T01:05:37;103093.50;;;5.22;86.95
69784;BME280;57054;51.978;4.498;2023-04-03T01:08:03;103096.97;;;5.23;87.02
69784;BME280;57054;51.978;4.498;2023-04-03T01:10:28;103098.66;;;5.21;87.04
69784;BME280;57054;51.978;4.498;2023-04-03T01:12:53;103105.56;;;5.20;87.30
69784;BME280;57054;51.978;4.498;2023-04-03T01:15:25;103102.09;;;5.19;87.41
69784;BME280;57054;51.978;4.498;2023-04-03T01:17:58;103096.91;;;5.19;87.51
69784;BME280;57054;51.978;4.498;2023-04-03T01:25:51;103102.94;;;5.17;87.47
69784;BME280;57054;51.978;4.498;2023-04-03T01:28:25;103099.44;;;5.15;87.75
69784;BME280;57054;51.978;4.498;2023-04-03T01:33:43;103105.44;;;5.12;87.80
69784;BME280;57054;51.978;4.498;2023-04-03T01:36:09;103103.66;;;5.10;87.75
69784;BME280;57054;51.978;4.498;2023-04-03T01:38:35;103112.28;;;5.09;87.80
69784;BME280;57054;51.978;4.498;2023-04-03T01:41:00;103107.94;;;5.06;87.83
69784;BME280;57054;51.978;4.498;2023-04-03T01:43:26;103102.66;;;5.03;87.47
69784;BME280;57054;51.978;4.498;2023-04-03T01:45:51;103103.50;;;5.00;87.47
69784;BME280;57054;51.978;4.498;2023-04-03T01:48:19;103101.75;;;4.99;87.61
69784;BME280;57054;51.978;4.498;2023-04-03T01:50:45;103105.16;;;4.97;87.63
69784;BME280;57054;51.978;4.498;2023-04-03T01:53:10;103103.41;;;4.96;87.74
69784;BME280;57054;51.978;4.498;2023-04-03T01:55:36;103103.34;;;4.93;87.78
69784;BME280;57054;51.978;4.498;2023-04-03T01:58:01;103109.41;;;4.92;87.84
69784;BME280;57054;51.978;4.498;2023-04-03T02:00:27;103107.63;;;4.91;87.71
69784;BME280;57054;51.978;4.498;2023-04-03T02:02:52;103105.91;;;4.90;87.74
69784;BME280;57054;51.978;4.498;2023-04-03T02:05:18;103100.63;;;4.87;88.01
69784;BME280;57054;51.978;4.498;2023-04-03T02:07:43;103112.75;;;4.86;87.99
69784;BME280;57054;51.978;4.498;2023-04-03T02:10:09;103114.44;;;4.86;88.12
69784;BME280;57054;51.978;4.498;2023-04-03T02:12:35;103115.31;;;4.85;88.13
69784;BME280;57054;51.978;4.498;2023-04-03T02:15:00;103119.59;;;4.83;88.13
69784;BME280;57054;51.978;4.498;2023-04-03T02:17:26;103123.91;;;4.80;88.14
69784;BME280;57054;51.978;4.498;2023-04-03T02:19:51;103124.72;;;4.79;88.19
69784;BME280;57054;51.978;4.498;2023-04-03T02:22:17;103131.59;;;4.77;88.14
69784;BME280;57054;51.978;4.498;2023-04-03T02:24:42;103123.78;;;4.76;88.31
69784;BME280;57054;51.978;4.498;2023-04-03T02:27:08;103121.16;;;4.74;88.24
69784;BME280;57054;51.978;4.498;2023-04-03T02:29:33;103133.25;;;4.74;88.36
69784;BME280;57054;51.978;4.498;2023-04-03T02:31:59;103129.78;;;4.72;88.39
69784;BME280;57054;51.978;4.498;2023-04-03T02:34:24;103129.72;;;4.70;88.59
69784;BME280;57054;51.978;4.498;2023-04-03T02:36:49;103137.53;;;4.70;88.46
69784;BME280;57054;51.978;4.498;2023-04-03T02:39:15;103128.81;;;4.68;88.52
69784;BME280;57054;51.978;4.498;2023-04-03T02:41:41;103132.22;;;4.66;88.54
69784;BME280;57054;51.978;4.498;2023-04-03T02:44:08;103131.34;;;4.65;88.61
69784;BME280;57054;51.978;4.498;2023-04-03T02:46:34;103137.41;;;4.64;88.59
69784;BME280;57054;51.978;4.498;2023-04-03T02:48:59;103125.25;;;4.63;88.65
69784;BME280;57054;51.978;4.498;2023-04-03T02:51:25;103139.97;;;4.63;88.82
69784;BME280;57054;51.978;4.498;2023-04-03T02:53:50;103133.88;;;4.60;88.89
69784;BME280;57054;51.978;4.498;2023-04-03T02:56:17;103135.56;;;4.58;88.88
69784;BME280;57054;51.978;4.498;2023-04-03T02:58:43;103143.31;;;4.57;88.88
69784;BME280;57054;51.978;4.498;2023-04-03T03:01:09;103133.75;;;4.56;88.79
69784;BME280;57054;51.978;4.498;2023-04-03T03:03:35;103134.63;;;4.55;88.84
69784;BME280;57054;51.978;4.498;2023-04-03T03:06:04;103132.00;;;4.53;88.99
69784;BME280;57054;51.978;4.498;2023-04-03T03:08:30;103134.59;;;4.53;88.92
69784;BME280;57054;51.978;4.498;2023-04-03T03:10:56;103135.41;;;4.52;89.03
69784;BME280;57054;51.978;4.498;2023-04-03T03:13:21;103138.88;;;4.51;89.01
69784;BME280;57054;51.978;4.498;2023-04-03T03:15:46;103138.00;;;4.52;89.19
69784;BME280;57054;51.978;4.498;2023-04-03T03:18:12;103138.84;;;4.50;89.24
69784;BME280;57054;51.978;4.498;2023-04-03T03:20:37;103149.16;;;4.48;89.27
69784;BME280;57054;51.978;4.498;2023-04-03T03:23:03;103137.94;;;4.48;89.35
69784;BME280;57054;51.978;4.498;2023-04-03T03:25:28;103142.22;;;4.47;89.34
69784;BME280;57054;51.978;4.498;2023-04-03T03:27:53;103139.59;;;4.46;89.50
69784;BME280;57054;51.978;4.498;2023-04-03T03:30:19;103139.59;;;4.46;89.68
69784;BME280;57054;51.978;4.498;2023-04-03T03:32:44;103153.41;;;4.45;89.48
69784;BME280;57054;51.978;4.498;2023-04-03T03:35:10;103148.16;;;4.41;89.51
69784;BME280;57054;51.978;4.498;2023-04-03T03:37:35;103145.59;;;4.43;89.49
69784;BME280;57054;51.978;4.498;2023-04-03T03:40:01;103158.53;;;4.41;89.59
69784;BME280;57054;51.978;4.498;2023-04-03T03:42:26;103158.50;;;4.38;89.54
69784;BME280;57054;51.978;4.498;2023-04-03T03:44:52;103156.69;;;4.36;89.47
69784;BME280;57054;51.978;4.498;2023-04-03T03:47:17;103156.63;;;4.34;89.20
69784;BME280;57054;51.978;4.498;2023-04-03T03:49:42;103160.06;;;4.32;89.14
69784;BME280;57054;51.978;4.498;2023-04-03T03:52:08;103157.38;;;4.29;88.91
69784;BME280;57054;51.978;4.498;2023-04-03T03:54:36;103165.94;;;4.25;88.73
69784;BME280;57054;51.978;4.498;2023-04-03T03:57:01;103161.53;;;4.22;88.56
69784;BME280;57054;51.978;4.498;2023-04-03T03:59:27;103163.22;;;4.18;88.58
69784;BME280;57054;51.978;4.498;2023-04-03T04:01:52;103166.59;;;4.16;88.54
69784;BME280;57054;51.978;4.498;2023-04-03T04:04:17;103162.22;;;4.13;88.40
69784;BME280;57054;51.978;4.498;2023-04-03T04:06:43;103161.31;;;4.11;88.39
69784;BME280;57054;51.978;4.498;2023-04-03T04:09:09;103166.44;;;4.08;88.38
69784;BME280;57054;51.978;4.498;2023-04-03T04:11:34;103162.03;;;4.06;88.46
69784;BME280;57054;51.978;4.498;2023-04-03T04:14:00;103149.06;;;4.04;88.61
69784;BME280;57054;51.978;4.498;2023-04-03T04:16:25;103154.19;;;4.02;88.52
69784;BME280;57054;51.978;4.498;2023-04-03T04:18:51;103157.63;;;4.01;88.59
69784;BME280;57054;51.978;4.498;2023-04-03T04:21:16;103166.22;;;3.99;88.61
69784;BME280;57054;51.978;4.498;2023-04-03T04:23:41;103166.22;;;3.99;88.49
69784;BME280;57054;51.978;4.498;2023-04-03T04:26:07;103163.59;;;3.97;88.70
69784;BME280;57054;51.978;4.498;2023-04-03T04:28:32;103172.19;;;3.96;88.75
69784;BME280;57054;51.978;4.498;2023-04-03T04:30:57;103164.34;;;3.93;88.64
69784;BME280;57054;51.978;4.498;2023-04-03T04:33:23;103166.03;;;3.91;nan
69784;BME280;57054;51.978;4.498;2023-04-03T04:35:48;103166.00;;;3.90;88.60
69784;BME280;57054;51.978;4.498;2023-04-03T04:38:14;103174.59;;;3.89;88.69
69784;BME280;57054;51.978;4.498;2023-04-03T04:40:39;103178.91;;;3.88;88.67
69784;BME280;57054;51.978;4.498;2023-04-03T04:43:05;103174.50;;;3.85;88.55
69784;BME280;57054;51.978;4.498;2023-04-03T04:45:31;103183.97;;;3.83;88.57
69784;BME280;57054;51.978;4.498;2023-04-03T04:47:56;103180.47;;;3.81;88.53
69784;BME280;57054;51.978;4.498;2023-04-03T04:50:22;103186.47;;;3.79;88.25
69784;BME280;57054;51.978;4.498;2023-04-03T04:52:47;103182.97;;;3.77;88.55
69784;BME280;57054;51.978;4.498;2023-04-03T04:55:12;103190.69;;;3.75;88.66
69784;BME280;57054;51.978;4.498;2023-04-03T04:57:38;103194.97;;;3.73;88.46
69784;BME280;57054;51.978;4.498;2023-04-03T05:00:04;103183.69;;;3.71;88.43
69784;BME280;57054;51.978;4.498;2023-04-03T05:02:30;103187.94;;;3.69;88.36
69784;BME280;57054;51.978;4.498;2023-04-03T05:04:56;103190.50;;;3.68;88.45
69784;BME280;57054;51.978;4.498;2023-04-03T05:07:22;103195.66;;;3.66;88.57
69784;BME280;57054;51.978;4.498;2023-04-03T05:09:47;103193.06;;;3.66;88.66
69784;BME280;57054;51.978;4.498;2023-04-03T05:12:12;103193.00;;;3.64;88.94
69784;BME280;57054;51.978;4.498;2023-04-03T05:14:38;103189.50;;;3.62;88.76
69784;BME280;57054;51.978;4.498;2023-04-03T05:17:03;103192.91;;;3.61;89.00
69784;BME280;57054;51.978;4.498;2023-04-03T05:19:28;103194.66;;;3.61;89.13
69784;BME280;57054;51.978;4.498;2023-04-03T05:21:54;103199.81;;;3.61;89.23
69784;BME280;57054;51.978;4.498;2023-04-03T05:24:20;103193.72;;;3.59;89.35
69784;BME280;57054;51.978;4.498;2023-04-03T05:26:45;103198.00;;;3.58;89.36
69784;BME280;57054;51.978;4.498;2023-04-03T05:29:11;103203.19;;;3.58;89.62
69784;BME280;57054;51.978;4.498;2023-04-03T05:31:36;103202.34;;;3.58;89.36
69784;BME280;57054;51.978;4.498;2023-04-03T05:34:02;103202.28;;;3.55;89.52
69784;BME280;57054;51.978;4.498;2023-04-03T05:36:28;103211.78;;;3.56;89.62
69784;BME280;57054;51.978;4.498;2023-04-03T05:38:53;103204.00;;;3.56;89.70
69784;BME280;57054;51.978;4.498;2023-04-03T05:41:21;103211.72;;;3.54;89.92
69784;BME280;57054;51.978;4.498;2023-04-03T05:43:47;103209.09;;;3.53;89.95
69784;BME280;57054;51.978;4.498;2023-04-03T05:46:13;103209.94;;;3.52;89.98
69784;BME280;57054;51.978;4.498;2023-04-03T05:48:39;103208.22;;;3.52;90.00
69784;BME280;57054;51.978;4.498;2023-04-03T05:51:06;103200.41;;;3.51;90.10
69784;BME280;57054;51.978;4.498;2023-04-03T05:53:35;103202.13;;;3.50;90.18
69784;BME280;57054;51.978;4.498;2023-04-03T05:56:02;103208.13;;;3.49;90.25
69784;BME280;57054;51.978;4.498;2023-04-03T05:58:28;103210.78;;;3.51;90.20
69784;BME280;57054;51.978;4.498;2023-04-03T06:00:53;103218.59;;;3.52;90.44
69784;BME280;57054;51.978;4.498;2023-04-03T06:03:22;103215.13;;;3.52;90.46
69784;BME280;57054;51.978;4.498;2023-04-03T06:05:47;103218.56;;;3.51;90.47
69784;BME280;57054;51.978;4.498;2023-04-03T06:08:13;103219.34;;;3.48;90.64
69784;BME280;57054;51.978;4.498;2023-04-03T06:10:40;103215.03;;;3.49;90.62
69784;BME280;57054;51.978;4.498;2023-04-03T06:13:06;103224.63;;;3.51;90.69
69784;BME280;57054;51.978;4.498;2023-04-03T06:15:34;103229.81;;;3.51;90.79
69784;BME280;57054;51.978;4.498;2023-04-03T06:18:00;103230.72;;;3.53;91.06
69784;BME280;57054;51.978;4.498;2023-04-03T06:20:25;103234.22;;;3.55;91.19
69784;BME280;57054;51.978;4.498;2023-04-03T06:22:51;103229.00;;;3.54;91.33
69784;BME280;57054;51.978;4.498;2023-04-03T06:25:18;103242.00;;;3.55;91.25
69784;BME280;57054;51.978;4.498;2023-04-03T06:27:45;103239.47;;;3.58;91.40
69784;BME280;57054;51.978;4.498;2023-04-03T06:30:13;103242.06;;;3.58;91.61
69784;BME280;57054;51.978;4.498;2023-04-03T06:32:40;103238.66;;;3.59;91.43
69784;BME280;57054;51.978;4.498;2023-04-03T06:35:08;103240.44;;;3.62;91.66
69784;BME280;57054;51.978;4.498;2023-04-03T06:37:35;103243.94;;;3.62;91.89
69784;BME280;57054;51.978;4.498;2023-04-03T06:40:00;103241.38;;;3.64;92.02
69784;BME280;57054;51.978;4.498;2023-04-03T06:42:26;103240.53;;;3.65;91.99
69784;BME280;57054;51.978;4.498;2023-04-03T06:44:51;103242.25;;;3.64;92.17
69784;BME280;57054;51.978;4.498;2023-04-03T06:47:17;103240.56;;;3.67;92.13
69784;BME280;57054;51.978;4.498;2023-04-03T06:49:45;103237.97;;;3.67;92.26
69784;BME280;57054;51.978;4.498;2023-04-03T06:52:10;103232.75;;;3.65;92.14
69784;BME280;57054;51.978;4.498;2023-04-03T06:54:37;103235.38;;;3.67;92.26
69784;BME280;57054;51.978;4.498;2023-04-03T06:57:03;103250.19;;;3.71;92.57
69784;BME280;57054;51.978;4.498;2023-04-03T06:59:29;103250.19;;;3.71;92.41
69784;BME280;57054;51.978;4.498;2023-04-03T07:01:54;103244.16;;;3.72;92.19
69784;BME280;57054;51.978;4.498;2023-04-03T07:04:20;103246.72;;;3.70;92.28
69784;BME280;57054;51.978;4.498;2023-04-03T07:06:46;103251.91;;;3.70;92.03
69784;BME280;57054;51.978;4.498;2023-04-03T07:09:13;103251.91;;;3.70;91.78
69784;BME280;57054;51.978;4.498;2023-04-03T07:11:39;103257.03;;;3.69;91.64
69784;BME280;57054;51.978;4.498;2023-04-03T07:14:05;103268.28;;;3.69;91.43
69784;BME280;57054;51.978;4.498;2023-04-03T07:16:33;103256.22;;;3.70;91.52
69784;BME280;57054;51.978;4.498;2023-04-03T07:19:00;103269.22;;;3.73;91.78
69784;BME280;57054;51.978;4.498;2023-04-03T07:21:27;103271.00;;;3.74;91.33
69784;BME280;57054;51.978;4.498;2023-04-03T07:23:53;103276.19;;;3.74;91.26
69784;BME280;57054;51.978;4.498;2023-04-03T07:26:25;103268.41;;;3.74;91.37
69784;BME280;57054;51.978;4.498;2023-04-03T07:28:58;103268.44;;;3.75;91.26
69784;BME280;57054;51.978;4.498;2023-04-03T07:31:24;103278.78;;;3.74;90.16
69784;BME280;57054;51.978;4.498;2023-04-03T07:33:50;103272.78;;;3.76;90.35
69784;BME280;57054;51.978;4.498;2023-04-03T07:36:18;103275.38;;;3.75;90.14
69784;BME280;57054;51.978;4.498;2023-04-03T07:38:46;103285.78;;;3.78;90.30
69784;BME280;57054;51.978;4.498;2023-04-03T07:41:16;103276.31;;;3.78;90.55
69784;BME280;57054;51.978;4.498;2023-04-03T07:43:43;103285.94;;;3.82;90.45
69784;BME280;57054;51.978;4.498;2023-04-03T07:46:08;103279.78;;;3.79;89.83
69784;BME280;57054;51.978;4.498;2023-04-03T07:48:34;103285.00;;;3.80;89.80
69784;BME280;57054;51.978;4.498;2023-04-03T07:51:03;103292.84;;;3.83;90.00
69784;BME280;57054;51.978;4.498;2023-04-03T07:53:31;103290.25;;;3.83;89.97
69784;BME280;57054;51.978;4.498;2023-04-03T07:56:00;103290.25;;;3.83;90.02
69784;BME280;57054;51.978;4.498;2023-04-03T07:58:26;103291.25;;;3.89;89.92
69784;BME280;57054;51.978;4.498;2023-04-03T08:00:52;103294.72;;;3.89;90.10
69784;BME280;57054;51.978;4.498;2023-04-03T08:03:17;103293.94;;;3.92;90.03
69784;BME280;57054;51.978;4.498;2023-04-03T08:05:46;103293.13;;;3.94;90.13
69784;BME280;57054;51.978;4.498;2023-04-03T08:08:13;103300.09;;;3.95;89.14
69784;BME280;57054;51.978;4.498;2023-04-03T08:10:41;103295.72;;;3.94;88.63
69784;BME280;57054;51.978;4.498;2023-04-03T08:13:08;103300.97;;;3.96;nan
69784;BME280;57054;51.978;4.498;2023-04-03T08:15:34;103306.22;;;3.99;88.83
69784;BME280;57054;51.978;4.498;2023-04-03T08:18:00;103306.28;;;4.00;88.23
69784;BME280;57054;51.978;4.498;2023-04-03T08:20:26;103310.56;;;4.00;87.16
69784;BME280;57054;51.978;4.498;2023-04-03T08:22:52;103312.38;;;4.02;86.75
69784;BME280;57054;51.978;4.498;2023-04-03T08:25:18;103315.00;;;4.04;86.93
69784;BME280;57054;51.978;4.498;2023-04-03T08:27:44;103314.22;;;4.07;87.18
69784;BME280;57054;51.978;4.498;2023-04-03T08:30:10;103317.72;;;4.09;86.95
69784;BME280;57054;51.978;4.498;2023-04-03T08:32:36;103315.06;;;4.07;85.03
69784;BME280;57054;51.978;4.498;2023-04-03T08:35:03;103314.25;;;4.08;85.31
69784;BME280;57054;51.978;4.498;2023-04-03T08:37:29;103314.25;;;4.08;84.26
69784;BME280;57054;51.978;4.498;2023-04-03T08:39:54;103314.34;;;4.11;85.00
69784;BME280;57054;51.978;4.498;2023-04-03T08:43:21;103314.34;;;4.13;84.65
69784;BME280;57054;51.978;4.498;2023-04-03T08:48:07;103320.50;;;4.16;83.48
69784;BME280;57054;51.978;4.498;2023-04-03T08:50:40;103309.28;;;4.17;83.46
69784;BME280;57054;51.978;4.498;2023-04-03T08:53:12;103311.97;;;4.20;83.64
69784;BME280;57054;51.978;4.498;2023-04-03T08:55:48;103313.72;;;4.21;82.79
69784;BME280;57054;51.978;4.498;2023-04-03T08:58:23;103307.69;;;4.22;81.73
69784;BME280;57054;51.978;4.498;2023-04-03T09:01:20;103314.66;;;4.25;79.92
69784;BME280;57054;51.978;4.498;2023-04-03T09:03:46;103316.47;;;4.28;80.54
69784;BME280;57054;51.978;4.498;2023-04-03T09:06:24;103307.88;;;4.30;80.41
69784;BME280;57054;51.978;4.498;2023-04-03T09:14:40;103308.06;;;4.38;77.01
69784;BME280;57054;51.978;4.498;2023-04-03T09:20:19;103299.56;;;4.43;75.94
69784;BME280;57054;51.978;4.498;2023-04-03T09:22:50;103305.69;;;4.47;76.00
69784;BME280;57054;51.978;4.498;2023-04-03T09:25:17;103306.66;;;4.51;75.13
69784;BME280;57054;51.978;4.498;2023-04-03T09:27:44;103310.25;;;4.56;74.93
69784;BME280;57054;51.978;4.498;2023-04-03T09:30:17;103313.00;;;4.62;73.29
69784;BME280;57054;51.978;4.498;2023-04-03T09:32:49;103312.25;;;4.68;73.19
69784;BME280;57054;51.978;4.498;2023-04-03T09:35:38;103313.16;;;4.70;72.90
69784;BME280;57054;51.978;4.498;2023-04-03T09:40:49;103301.22;;;4.78;70.55
69784;BME280;57054;51.978;4.498;2023-04-03T09:45:43;103292.69;;;4.84;70.02
69784;BME280;57054;51.978;4.498;2023-04-03T09:50:58;103281.66;;;4.92;69.68
69784;BME280;57054;51.978;4.498;2023-04-03T09:56:00;103281.78;;;4.98;67.50
69784;BME280;57054;51.978;4.498;2023-04-03T09:58:37;103271.41;;;5.00;66.43
69784;BME280;57054;51.978;4.498;2023-04-03T10:01:05;103275.84;;;5.04;66.87
69784;BME280;57054;51.978;4.498;2023-04-03T10:03:34;103275.06;;;5.08;67.24
69784;BME280;57054;51.978;4.498;2023-04-03T10:06:01;103273.44;;;5.13;67.06
69784;BME280;57054;51.978;4.498;2023-04-03T10:08:33;103271.78;;;5.17;67.73
69784;BME280;57054;51.978;4.498;2023-04-03T10:11:17;103267.53;;;5.21;67.50
69784;BME280;57054;51.978;4.498;2023-04-03T10:13:58;103270.25;;;5.27;66.32
69784;BME280;57054;51.978;4.498;2023-04-03T10:16:34;103265.13;;;5.30;67.60
69784;BME280;57054;51.978;4.498;2023-04-03T10:22:19;103260.03;;;5.36;66.65
69784;BME280;57054;51.978;4.498;2023-04-03T10:24:57;103250.53;;;5.38;66.28
69784;BME280;57054;51.978;4.498;2023-04-03T10:27:31;103252.28;;;5.37;66.40
69784;BME280;57054;51.978;4.498;2023-04-03T10:41:02;103245.59;;;5.50;64.32
69784;BME280;57054;51.978;4.498;2023-04-03T10:43:44;103241.34;;;5.55;64.12
69784;BME280;57054;51.978;4.498;2023-04-03T10:46:23;103240.56;;;5.60;64.63
69784;BME280;57054;51.978;4.498;2023-04-03T10:49:18;103237.19;;;5.65;64.17
69784;BME280;57054;51.978;4.498;2023-04-03T10:52:12;103239.00;;;5.69;64.11
69784;BME280;57054;51.978;4.498;2023-04-03T10:54:56;103237.34;;;5.74;62.92
69784;BME280;57054;51.978;4.498;2023-04-03T10:57:24;103240.88;;;5.78;62.62
69784;BME280;57054;51.978;4.498;2023-04-03T10:59:57;103240.94;;;5.81;62.59
69784;BME280;57054;51.978;4.498;2023-04-03T11:02:30;103244.44;;;5.83;62.99
69784;BME280;57054;51.978;4.498;2023-04-03T11:05:03;103236.72;;;5.86;61.01
69784;BME280;57054;51.978;4.498;2023-04-03T11:07:34;103240.28;;;5.91;60.54
69784;BME280;57054;51.978;4.498;2023-04-03T11:10:09;103250.78;;;5.96;60.62
69784;BME280;57054;51.978;4.498;2023-04-03T11:15:04;103232.63;;;5.99;59.57
69784;BME280;57054;51.978;4.498;2023-04-03T11:17:38;103235.28;;;6.02;60.66
69784;BME280;57054;51.978;4.498;2023-04-03T11:20:18;103233.63;;;6.06;57.84
69784;BME280;57054;51.978;4.498;2023-04-03T11:22:57;103238.84;;;6.09;58.56
69784;BME280;57054;51.978;4.498;2023-04-03T11:25:25;103231.97;;;6.12;60.02
69784;BME280;57054;51.978;4.498;2023-04-03T11:28:11;103220.72;;;6.13;58.80
69784;BME280;57054;51.978;4.498;2023-04-03T11:33:37;103219.06;;;6.19;60.31
69784;BME280;57054;51.978;4.498;2023-04-03T11:36:08;103217.38;;;6.21;58.68
69784;BME280;57054;51.978;4.498;2023-04-03T11:38:37;103211.31;;;6.23;58.32
69784;BME280;57054;51.978;4.498;2023-04-03T11:41:07;103204.44;;;6.27;58.17
69784;BME280;57054;51.978;4.498;2023-04-03T11:43:40;103208.84;;;6.29;57.53
69784;BME280;57054;51.978;4.498;2023-04-03T11:46:07;103198.41;;;6.31;57.26
69784;BME280;57054;51.978;4.498;2023-04-03T11:53:41;103185.50;;;6.36;55.06
69784;BME280;57054;51.978;4.498;2023-04-03T11:59:22;103182.00;;;6.37;54.13
69784;BME280;57054;51.978;4.498;2023-04-03T12:01:51;103184.66;;;6.38;54.51
69784;BME280;57054;51.978;4.498;2023-04-03T12:04:20;103181.19;;;6.39;55.58
69784;BME280;57054;51.978;4.498;2023-04-03T12:09:34;103176.06;;;6.45;55.97
69784;BME280;57054;51.978;4.498;2023-04-03T12:12:36;103177.84;;;6.48;51.29
69784;BME280;57054;51.978;4.498;2023-04-03T12:17:48;103172.78;;;6.57;52.75
69784;BME280;57054;51.978;4.498;2023-04-03T12:20:53;103166.72;;;6.60;53.13
69784;BME280;57054;51.978;4.498;2023-04-03T12:23:35;103158.94;;;6.61;52.97
69784;BME280;57054;51.978;4.498;2023-04-03T12:26:38;103157.22;;;6.63;54.24
69784;BME280;57054;51.978;4.498;2023-04-03T12:29:23;103159.81;;;6.63;53.64
69784;BME280;57054;51.978;4.498;2023-04-03T12:48:53;103137.38;;;6.73;52.02
69784;BME280;57054;51.978;4.498;2023-04-03T12:51:34;103133.13;;;6.80;54.19
69784;BME280;57054;51.978;4.498;2023-04-03T12:54:03;103131.41;;;6.83;56.18
69784;BME280;57054;51.978;4.498;2023-04-03T12:56:32;103129.69;;;6.85;54.98
69784;BME280;57054;51.978;4.498;2023-04-03T12:59:25;103128.00;;;6.87;55.31
69784;BME280;57054;51.978;4.498;2023-04-03T13:02:01;103124.53;;;6.88;54.29
69784;BME280;57054;51.978;4.498;2023-04-03T13:04:28;103128.00;;;6.89;54.78
69784;BME280;57054;51.978;4.498;2023-04-03T13:06:54;103123.72;;;6.94;54.99
69784;BME280;57054;51.978;4.498;2023-04-03T13:09:23;103123.75;;;6.96;54.33
69784;BME280;57054;51.978;4.498;2023-04-03T13:11:57;103113.34;;;6.97;54.63
69784;BME280;57054;51.978;4.498;2023-04-03T13:14:26;103111.63;;;6.98;54.75
69784;BME280;57054;51.978;4.498;2023-04-03T13:17:09;103116.84;;;6.99;55.00
69784;BME280;57054;51.978;4.498;2023-04-03T13:19:39;103115.09;;;6.98;56.01
69784;BME280;57054;51.978;4.498;2023-04-03T13:24:54;103119.50;;;7.05;56.46
69784;BME280;57054;51.978;4.498;2023-04-03T13:27:20;103119.53;;;7.07;56.06
69784;BME280;57054;51.978;4.498;2023-04-03T13:29:51;103129.13;;;7.09;55.84
69784;BME280;57054;51.978;4.498;2023-04-03T13:32:25;103123.06;;;7.12;55.34
69784;BME280;57054;51.978;4.498;2023-04-03T13:34:51;103120.47;;;7.14;56.13
69784;BME280;57054;51.978;4.498;2023-04-03T13:37:24;103112.69;;;7.15;57.55
69784;BME280;57054;51.978;4.498;2023-04-03T13:40:10;103123.09;;;7.17;54.99
69784;BME280;57054;51.978;4.498;2023-04-03T13:42:39;103122.28;;;7.21;57.07
69784;BME280;57054;51.978;4.498;2023-04-03T13:45:26;103121.44;;;7.25;54.77
69784;BME280;57054;51.978;4.498;2023-04-03T13:48:11;103111.06;;;7.28;55.96
69784;BME280;57054;51.978;4.498;2023-04-03T13:51:07;103112.78;;;7.29;54.63
69784;BME280;57054;51.978;4.498;2023-04-03T13:54:01;103105.88;;;7.33;54.14
69784;BME280;57054;51.978;4.498;2023-04-03T13:56:39;103108.50;;;7.34;54.85
69784;BME280;57054;51.978;4.498;2023-04-03T14:07:14;103085.91;;;7.36;55.01
69784;BME280;57054;51.978;4.498;2023-04-03T14:09:40;103087.69;;;7.37;55.09
69784;BME280;57054;51.978;4.498;2023-04-03T14:12:17;103083.34;;;7.39;54.66
69784;BME280;57054;51.978;4.498;2023-04-03T14:14:43;103085.09;;;7.42;54.96
69784;BME280;57054;51.978;4.498;2023-04-03T14:17:20;103073.84;;;7.44;54.65
69784;BME280;57054;51.978;4.498;2023-04-03T14:19:47;103073.84;;;7.47;56.02
69784;BME280;57054;51.978;4.498;2023-04-03T14:22:23;103063.44;;;7.50;55.47
69784;BME280;57054;51.978;4.498;2023-04-03T14:24:49;103066.09;;;7.54;55.64
69784;BME280;57054;51.978;4.498;2023-04-03T14:27:21;103066.94;;;7.54;53.97
69784;BME280;57054;51.978;4.498;2023-04-03T14:29:48;103069.56;;;7.56;55.21
69784;BME280;57054;51.978;4.498;2023-04-03T14:32:15;103060.00;;;7.55;54.46
69784;BME280;57054;51.978;4.498;2023-04-03T14:34:42;103056.50;;;7.54;55.19
69784;BME280;57054;51.978;4.498;2023-04-03T14:37:13;103052.16;;;7.55;54.78
69784;BME280;57054;51.978;4.498;2023-04-03T14:39:40;103052.16;;;7.55;54.22
69784;BME280;57054;51.978;4.498;2023-04-03T14:42:06;103049.56;;;7.55;55.35
69784;BME280;57054;51.978;4.498;2023-04-03T14:44:31;103055.66;;;7.54;55.30